PWSweather.com
Personal Weather Stations
Station Observations
VPOKROGLO
Kal Nad Kanalom, PrimorskaSI

Kal Nad KanalomPrimorskaSI

Lat: 46.072, Lon: 13.734

Elevation: 2526

Station Type: WS-2355

http://www.okroglovreme.com

High Low Average
Temperature 32.2°F0.1°F 28.6°F-1.9°F 30.5°F-0.8°F
Dew Point 28.7°F-1.8°F 20.4°F-6.4°F 25.2°F-3.8°F
Winds 3.8 mph SW6.1 mph SW Calm Calm 0.8 mph 1.3 mph
Wind Gusts 9.2 mph14.8 mph -- 2.1 mph3.4 mph
Humidity 90% 70% 81%
Pressure 29.78 in1008.50 in 29.20 in988.80 in -
Precipitation 0.00 in0.00 in - -
Hour Temp Dew Point Humidity Winds Wind Gusts Pressure Precip Precip Rate Daily Precip Total
12:00 AM 28.6°F-1.9°C 20.4°F-6.4°C 71% 0.2 mph SE0.3 kmh SE 1.6 mph2.6 kmh 29.78 in1008.5 mb 0.00 in0.0 mm 0.00 in/hr0.0 mm/hr 0.00 in0.0 mm
12:15 AM 28.8°F-1.8°C 20.5°F-6.4°C 71% 0.3 mph SE0.5 kmh SE 2.5 mph4.0 kmh 29.77 in1008.1 mb 0.00 in0.0 mm 0.00 in/hr0.0 mm/hr 0.00 in0.0 mm
12:30 AM 29.1°F-1.6°C 20.6°F-6.3°C 70% 0.7 mph SE1.1 kmh SE 2.9 mph4.7 kmh 29.76 in1007.8 mb 0.00 in0.0 mm 0.00 in/hr0.0 mm/hr 0.00 in0.0 mm
12:45 AM 29.1°F-1.6°C 20.6°F-6.3°C 70% Calm Calm 0.9 mph1.4 kmh 29.75 in1007.5 mb 0.00 in0.0 mm 0.00 in/hr0.0 mm/hr 0.00 in0.0 mm
01:00 AM 29.1°F-1.6°C 20.6°F-6.3°C 70% Calm Calm 1.3 mph2.1 kmh 29.75 in1007.5 mb 0.00 in0.0 mm 0.00 in/hr0.0 mm/hr 0.00 in0.0 mm
01:15 AM 28.9°F-1.7°C 20.4°F-6.4°C 70% 0.1 mph S0.2 kmh S 1.6 mph2.6 kmh 29.75 in1007.5 mb 0.00 in0.0 mm 0.00 in/hr0.0 mm/hr 0.00 in0.0 mm
01:30 AM 28.8°F-1.8°C 20.5°F-6.4°C 71% Calm Calm -- 29.74 in1007.1 mb 0.00 in0.0 mm 0.00 in/hr0.0 mm/hr 0.00 in0.0 mm
01:45 AM 28.6°F-1.9°C 20.4°F-6.4°C 71% Calm Calm 1.3 mph2.1 kmh 29.73 in1006.8 mb 0.00 in0.0 mm 0.00 in/hr0.0 mm/hr 0.00 in0.0 mm
02:00 AM 28.6°F-1.9°C 20.4°F-6.4°C 71% 0.3 mph SSW0.5 kmh SSW 3.1 mph5.0 kmh 29.73 in1006.8 mb 0.00 in0.0 mm 0.00 in/hr0.0 mm/hr 0.00 in0.0 mm
02:15 AM 28.6°F-1.9°C 20.4°F-6.4°C 71% 1.5 mph SSW2.4 kmh SSW 4.7 mph7.6 kmh 29.73 in1006.8 mb 0.00 in0.0 mm 0.00 in/hr0.0 mm/hr 0.00 in0.0 mm
02:30 AM 28.8°F-1.8°C 20.9°F-6.2°C 72% 1.5 mph SW2.4 kmh SW 5.1 mph8.2 kmh 29.73 in1006.8 mb 0.00 in0.0 mm 0.00 in/hr0.0 mm/hr 0.00 in0.0 mm
02:45 AM 29.1°F-1.6°C 21.2°F-6.0°C 72% 2.0 mph S3.2 kmh S 4.5 mph7.2 kmh 29.71 in1006.1 mb 0.00 in0.0 mm 0.00 in/hr0.0 mm/hr 0.00 in0.0 mm
03:00 AM 29.1°F-1.6°C 21.2°F-6.0°C 72% 3.7 mph SSW6.0 kmh SSW 6.7 mph10.8 kmh 29.71 in1006.1 mb 0.00 in0.0 mm 0.00 in/hr0.0 mm/hr 0.00 in0.0 mm
03:15 AM 29.5°F-1.4°C 21.9°F-5.6°C 73% 3.8 mph SW6.1 kmh SW 9.2 mph14.8 kmh 29.70 in1005.8 mb 0.00 in0.0 mm 0.00 in/hr0.0 mm/hr 0.00 in0.0 mm
03:30 AM 29.3°F-1.5°C 21.7°F-5.7°C 73% 3.6 mph SW5.8 kmh SW 8.1 mph13.0 kmh 29.69 in1005.4 mb 0.00 in0.0 mm 0.00 in/hr0.0 mm/hr 0.00 in0.0 mm
03:45 AM 29.3°F-1.5°C 22.0°F-5.6°C 74% 3.5 mph SW5.6 kmh SW 6.5 mph10.5 kmh 29.68 in1005.1 mb 0.00 in0.0 mm 0.00 in/hr0.0 mm/hr 0.00 in0.0 mm
04:00 AM 29.3°F-1.5°C 22.4°F-5.3°C 75% 3.1 mph SW5.0 kmh SW 5.8 mph9.3 kmh 29.68 in1005.1 mb 0.00 in0.0 mm 0.00 in/hr0.0 mm/hr 0.00 in0.0 mm
04:15 AM 29.3°F-1.5°C 22.4°F-5.3°C 75% 2.6 mph SW4.2 kmh SW 5.1 mph8.2 kmh 29.69 in1005.4 mb 0.00 in0.0 mm 0.00 in/hr0.0 mm/hr 0.00 in0.0 mm
04:30 AM 29.3°F-1.5°C 22.7°F-5.2°C 76% 1.7 mph SW2.7 kmh SW 4.7 mph7.6 kmh 29.68 in1005.1 mb 0.00 in0.0 mm 0.00 in/hr0.0 mm/hr 0.00 in0.0 mm
04:45 AM 29.3°F-1.5°C 22.7°F-5.2°C 76% 2.1 mph SW3.4 kmh SW 3.8 mph6.1 kmh 29.67 in1004.7 mb 0.00 in0.0 mm 0.00 in/hr0.0 mm/hr 0.00 in0.0 mm
05:00 AM 29.5°F-1.4°C 23.2°F-4.9°C 77% 1.8 mph SW2.9 kmh SW 4.0 mph6.4 kmh 29.67 in1004.7 mb 0.00 in0.0 mm 0.00 in/hr0.0 mm/hr 0.00 in0.0 mm
05:15 AM 29.5°F-1.4°C 23.2°F-4.9°C 77% 2.5 mph SSW4.0 kmh SSW 5.4 mph8.7 kmh 29.66 in1004.4 mb 0.00 in0.0 mm 0.00 in/hr0.0 mm/hr 0.00 in0.0 mm
05:30 AM 29.5°F-1.4°C 23.2°F-4.9°C 77% 3.5 mph SW5.6 kmh SW 5.6 mph9.0 kmh 29.65 in1004.1 mb 0.00 in0.0 mm 0.00 in/hr0.0 mm/hr 0.00 in0.0 mm
05:45 AM 29.5°F-1.4°C 23.5°F-4.7°C 78% 3.7 mph SW6.0 kmh SW 6.7 mph10.8 kmh 29.64 in1003.7 mb 0.00 in0.0 mm 0.00 in/hr0.0 mm/hr 0.00 in0.0 mm
06:00 AM 29.5°F-1.4°C 23.5°F-4.7°C 78% 3.4 mph SW5.5 kmh SW 6.0 mph9.7 kmh 29.64 in1003.7 mb 0.00 in0.0 mm 0.00 in/hr0.0 mm/hr 0.00 in0.0 mm
06:15 AM 29.5°F-1.4°C 23.5°F-4.7°C 78% 3.8 mph SW6.1 kmh SW 7.2 mph11.6 kmh 29.64 in1003.7 mb 0.00 in0.0 mm 0.00 in/hr0.0 mm/hr 0.00 in0.0 mm
06:30 AM 29.1°F-1.6°C 23.4°F-4.8°C 79% 3.1 mph SW5.0 kmh SW 6.5 mph10.5 kmh 29.63 in1003.4 mb 0.00 in0.0 mm 0.00 in/hr0.0 mm/hr 0.00 in0.0 mm
06:45 AM 29.1°F-1.6°C 23.4°F-4.8°C 79% 3.2 mph SSW5.1 kmh SSW 6.7 mph10.8 kmh 29.62 in1003.0 mb 0.00 in0.0 mm 0.00 in/hr0.0 mm/hr 0.00 in0.0 mm
07:00 AM 28.9°F-1.7°C 23.2°F-4.9°C 79% 2.5 mph SSW4.0 kmh SSW 5.6 mph9.0 kmh 29.62 in1003.0 mb 0.00 in0.0 mm 0.00 in/hr0.0 mm/hr 0.00 in0.0 mm
07:15 AM 28.8°F-1.8°C 23.4°F-4.8°C 80% 2.9 mph SW4.7 kmh SW 5.4 mph8.7 kmh 29.62 in1003.0 mb 0.00 in0.0 mm 0.00 in/hr0.0 mm/hr 0.00 in0.0 mm
07:30 AM 28.9°F-1.7°C 23.5°F-4.7°C 80% 3.1 mph SW5.0 kmh SW 6.0 mph9.7 kmh 29.62 in1003.0 mb 0.00 in0.0 mm 0.00 in/hr0.0 mm/hr 0.00 in0.0 mm
07:45 AM 28.9°F-1.7°C 23.5°F-4.7°C 80% 3.6 mph SW5.8 kmh SW 6.9 mph11.1 kmh 29.62 in1003.0 mb 0.00 in0.0 mm 0.00 in/hr0.0 mm/hr 0.00 in0.0 mm
08:00 AM 28.9°F-1.7°C 23.8°F-4.6°C 81% 2.5 mph SSW4.0 kmh SSW 5.4 mph8.7 kmh 29.62 in1003.0 mb 0.00 in0.0 mm 0.00 in/hr0.0 mm/hr 0.00 in0.0 mm
08:15 AM 29.1°F-1.6°C 24.0°F-4.4°C 81% 1.7 mph SSW2.7 kmh SSW 4.3 mph6.9 kmh 29.62 in1003.0 mb 0.00 in0.0 mm 0.00 in/hr0.0 mm/hr 0.00 in0.0 mm
08:30 AM 29.1°F-1.6°C 24.3°F-4.3°C 82% 0.6 mph SW1.0 kmh SW 2.9 mph4.7 kmh 29.63 in1003.4 mb 0.00 in0.0 mm 0.00 in/hr0.0 mm/hr 0.00 in0.0 mm
08:45 AM 29.1°F-1.6°C 24.3°F-4.3°C 82% Calm Calm 1.3 mph2.1 kmh 29.63 in1003.4 mb 0.00 in0.0 mm 0.00 in/hr0.0 mm/hr 0.00 in0.0 mm
09:00 AM 29.3°F-1.5°C 24.8°F-4.0°C 83% Calm Calm -- 29.63 in1003.4 mb 0.00 in0.0 mm 0.00 in/hr0.0 mm/hr 0.00 in0.0 mm
09:15 AM 29.7°F-1.3°C 25.1°F-3.8°C 83% Calm Calm -- 29.62 in1003.0 mb 0.00 in0.0 mm 0.00 in/hr0.0 mm/hr 0.00 in0.0 mm
09:30 AM 30.0°F-1.1°C 25.5°F-3.6°C 83% Calm Calm -- 29.61 in1002.7 mb 0.00 in0.0 mm 0.00 in/hr0.0 mm/hr 0.00 in0.0 mm
09:45 AM 30.2°F-1.0°C 25.7°F-3.5°C 83% Calm Calm -- 29.61 in1002.7 mb 0.00 in0.0 mm 0.00 in/hr0.0 mm/hr 0.00 in0.0 mm
10:00 AM 30.4°F-0.9°C 25.5°F-3.6°C 82% Calm Calm -- 29.60 in1002.4 mb 0.00 in0.0 mm 0.00 in/hr0.0 mm/hr 0.00 in0.0 mm
10:15 AM 30.6°F-0.8°C 25.7°F-3.5°C 82% Calm Calm -- 29.60 in1002.4 mb 0.00 in0.0 mm 0.00 in/hr0.0 mm/hr 0.00 in0.0 mm
10:30 AM 30.9°F-0.6°C 25.8°F-3.4°C 81% Calm Calm -- 29.59 in1002.0 mb 0.00 in0.0 mm 0.00 in/hr0.0 mm/hr 0.00 in0.0 mm
10:45 AM 31.1°F-0.5°C 25.7°F-3.5°C 80% Calm Calm -- 29.60 in1002.4 mb 0.00 in0.0 mm 0.00 in/hr0.0 mm/hr 0.00 in0.0 mm
11:00 AM 31.3°F-0.4°C 25.2°F-3.8°C 78% Calm Calm -- 29.60 in1002.4 mb 0.00 in0.0 mm 0.00 in/hr0.0 mm/hr 0.00 in0.0 mm
11:15 AM 31.3°F-0.4°C 24.6°F-4.1°C 76% Calm Calm -- 29.60 in1002.4 mb 0.00 in0.0 mm 0.00 in/hr0.0 mm/hr 0.00 in0.0 mm
11:30 AM 31.6°F-0.2°C 24.6°F-4.1°C 75% Calm Calm -- 29.59 in1002.0 mb 0.00 in0.0 mm 0.00 in/hr0.0 mm/hr 0.00 in0.0 mm
11:45 AM 31.6°F-0.2°C 24.3°F-4.3°C 74% 0.1 mph SW0.2 kmh SW 2.0 mph3.2 kmh 29.58 in1001.7 mb 0.00 in0.0 mm 0.00 in/hr0.0 mm/hr 0.00 in0.0 mm
12:00 PM 31.3°F-0.4°C 24.3°F-4.3°C 75% Calm Calm -- 29.57 in1001.4 mb 0.00 in0.0 mm 0.00 in/hr0.0 mm/hr 0.00 in0.0 mm
12:15 PM 31.6°F-0.2°C 24.9°F-3.9°C 76% Calm Calm -- 29.57 in1001.4 mb 0.00 in0.0 mm 0.00 in/hr0.0 mm/hr 0.00 in0.0 mm
12:30 PM 31.5°F-0.3°C 25.1°F-3.8°C 77% 0.1 mph WSW0.2 kmh WSW 0.9 mph1.4 kmh 29.57 in1001.4 mb 0.00 in0.0 mm 0.00 in/hr0.0 mm/hr 0.00 in0.0 mm
12:45 PM 31.3°F-0.4°C 25.2°F-3.8°C 78% Calm Calm -- 29.55 in1000.7 mb 0.00 in0.0 mm 0.00 in/hr0.0 mm/hr 0.00 in0.0 mm
01:00 PM 31.5°F-0.3°C 25.4°F-3.7°C 78% Calm Calm -- 29.54 in1000.3 mb 0.00 in0.0 mm 0.00 in/hr0.0 mm/hr 0.00 in0.0 mm
01:15 PM 31.6°F-0.2°C 25.9°F-3.4°C 79% Calm Calm -- 29.54 in1000.3 mb 0.00 in0.0 mm 0.00 in/hr0.0 mm/hr 0.00 in0.0 mm
01:30 PM 31.6°F-0.2°C 26.2°F-3.2°C 80% Calm Calm 1.3 mph2.1 kmh 29.53 in1000.0 mb 0.00 in0.0 mm 0.00 in/hr0.0 mm/hr 0.00 in0.0 mm
01:45 PM 31.8°F-0.1°C 26.4°F-3.1°C 80% 0.1 mph WSW0.2 kmh WSW 2.2 mph3.5 kmh 29.52 in999.7 mb 0.00 in0.0 mm 0.00 in/hr0.0 mm/hr 0.00 in0.0 mm
02:00 PM 31.8°F-0.1°C 26.7°F-2.9°C 81% 1.0 mph SW1.6 kmh SW 3.8 mph6.1 kmh 29.51 in999.3 mb 0.00 in0.0 mm 0.00 in/hr0.0 mm/hr 0.00 in0.0 mm
02:15 PM 32.0°F0.0°C 27.1°F-2.7°C 82% 0.6 mph WSW1.0 kmh WSW 3.4 mph5.5 kmh 29.51 in999.3 mb 0.00 in0.0 mm 0.00 in/hr0.0 mm/hr 0.00 in0.0 mm
02:30 PM 32.2°F0.1°C 27.6°F-2.4°C 83% 0.6 mph SW1.0 kmh SW 4.0 mph6.4 kmh 29.50 in999.0 mb 0.00 in0.0 mm 0.00 in/hr0.0 mm/hr 0.00 in0.0 mm
02:45 PM 32.2°F0.1°C 27.9°F-2.3°C 84% 0.5 mph S0.8 kmh S 2.7 mph4.3 kmh 29.50 in999.0 mb 0.00 in0.0 mm 0.00 in/hr0.0 mm/hr 0.00 in0.0 mm
03:00 PM 32.2°F0.1°C 27.9°F-2.3°C 84% 0.4 mph SSW0.6 kmh SSW 3.4 mph5.5 kmh 29.49 in998.6 mb 0.00 in0.0 mm 0.00 in/hr0.0 mm/hr 0.00 in0.0 mm
03:15 PM 32.2°F0.1°C 27.9°F-2.3°C 84% 0.1 mph WSW0.2 kmh WSW 1.3 mph2.1 kmh 29.48 in998.3 mb 0.00 in0.0 mm 0.00 in/hr0.0 mm/hr 0.00 in0.0 mm
03:30 PM 32.2°F0.1°C 27.9°F-2.3°C 84% Calm Calm -- 29.48 in998.3 mb 0.00 in0.0 mm 0.00 in/hr0.0 mm/hr 0.00 in0.0 mm
03:45 PM 31.8°F-0.1°C 27.5°F-2.5°C 84% 0.1 mph WNW0.2 kmh WNW 1.6 mph2.6 kmh 29.47 in998.0 mb 0.00 in0.0 mm 0.00 in/hr0.0 mm/hr 0.00 in0.0 mm
04:00 PM 31.8°F-0.1°C 27.8°F-2.3°C 85% Calm Calm 1.3 mph2.1 kmh 29.47 in998.0 mb 0.00 in0.0 mm 0.00 in/hr0.0 mm/hr 0.00 in0.0 mm
04:15 PM 31.8°F-0.1°C 27.8°F-2.3°C 85% Calm Calm -- 29.46 in997.6 mb 0.00 in0.0 mm 0.00 in/hr0.0 mm/hr 0.00 in0.0 mm
04:30 PM 31.8°F-0.1°C 27.8°F-2.3°C 85% Calm Calm 0.9 mph1.4 kmh 29.46 in997.6 mb 0.00 in0.0 mm 0.00 in/hr0.0 mm/hr 0.00 in0.0 mm
04:45 PM 31.8°F-0.1°C 27.8°F-2.3°C 85% Calm Calm -- 29.45 in997.3 mb 0.00 in0.0 mm 0.00 in/hr0.0 mm/hr 0.00 in0.0 mm
05:00 PM 31.8°F-0.1°C 28.1°F-2.2°C 86% Calm Calm 1.1 mph1.8 kmh 29.45 in997.3 mb 0.00 in0.0 mm 0.00 in/hr0.0 mm/hr 0.00 in0.0 mm
05:15 PM 31.6°F-0.2°C 27.9°F-2.3°C 86% 0.1 mph NNE0.2 kmh NNE 1.3 mph2.1 kmh 29.44 in997.0 mb 0.00 in0.0 mm 0.00 in/hr0.0 mm/hr 0.00 in0.0 mm
05:30 PM 31.6°F-0.2°C 27.9°F-2.3°C 86% 0.1 mph ENE0.2 kmh ENE 1.3 mph2.1 kmh 29.44 in997.0 mb 0.00 in0.0 mm 0.00 in/hr0.0 mm/hr 0.00 in0.0 mm
05:45 PM 31.6°F-0.2°C 27.9°F-2.3°C 86% Calm Calm -- 29.44 in997.0 mb 0.00 in0.0 mm 0.00 in/hr0.0 mm/hr 0.00 in0.0 mm
06:00 PM 31.6°F-0.2°C 27.9°F-2.3°C 86% Calm Calm -- 29.43 in996.6 mb 0.00 in0.0 mm 0.00 in/hr0.0 mm/hr 0.00 in0.0 mm
06:15 PM 31.6°F-0.2°C 27.9°F-2.3°C 86% 0.1 mph NE0.2 kmh NE 1.1 mph1.8 kmh 29.42 in996.3 mb 0.00 in0.0 mm 0.00 in/hr0.0 mm/hr 0.00 in0.0 mm
06:30 PM 31.6°F-0.2°C 27.9°F-2.3°C 86% Calm Calm 0.9 mph1.4 kmh 29.41 in995.9 mb 0.00 in0.0 mm 0.00 in/hr0.0 mm/hr 0.00 in0.0 mm
06:45 PM 31.5°F-0.3°C 27.8°F-2.3°C 86% Calm Calm 0.9 mph1.4 kmh 29.40 in995.6 mb 0.00 in0.0 mm 0.00 in/hr0.0 mm/hr 0.00 in0.0 mm
07:00 PM 31.3°F-0.4°C 27.6°F-2.4°C 86% Calm Calm -- 29.39 in995.3 mb 0.00 in0.0 mm 0.00 in/hr0.0 mm/hr 0.00 in0.0 mm
07:15 PM 31.3°F-0.4°C 27.9°F-2.3°C 87% Calm Calm 1.1 mph1.8 kmh 29.39 in995.3 mb 0.00 in0.0 mm 0.00 in/hr0.0 mm/hr 0.00 in0.0 mm
07:30 PM 30.9°F-0.6°C 27.5°F-2.5°C 87% 0.1 mph W0.2 kmh W 2.0 mph3.2 kmh 29.38 in994.9 mb 0.00 in0.0 mm 0.00 in/hr0.0 mm/hr 0.00 in0.0 mm
07:45 PM 30.7°F-0.7°C 27.3°F-2.6°C 87% Calm Calm -- 29.38 in994.9 mb 0.00 in0.0 mm 0.00 in/hr0.0 mm/hr 0.00 in0.0 mm
08:00 PM 30.7°F-0.7°C 27.3°F-2.6°C 87% Calm Calm -- 29.36 in994.2 mb 0.00 in0.0 mm 0.00 in/hr0.0 mm/hr 0.00 in0.0 mm
08:15 PM 30.9°F-0.6°C 27.8°F-2.3°C 88% Calm Calm -- 29.36 in994.2 mb 0.00 in0.0 mm 0.00 in/hr0.0 mm/hr 0.00 in0.0 mm
08:30 PM 30.9°F-0.6°C 27.8°F-2.3°C 88% Calm Calm -- 29.34 in993.6 mb 0.00 in0.0 mm 0.00 in/hr0.0 mm/hr 0.00 in0.0 mm
08:45 PM 31.1°F-0.5°C 28.0°F-2.2°C 88% Calm Calm -- 29.34 in993.6 mb 0.00 in0.0 mm 0.00 in/hr0.0 mm/hr 0.00 in0.0 mm
09:00 PM 31.1°F-0.5°C 28.0°F-2.2°C 88% Calm Calm -- 29.33 in993.2 mb 0.00 in0.0 mm 0.00 in/hr0.0 mm/hr 0.00 in0.0 mm
09:15 PM 30.9°F-0.6°C 27.8°F-2.3°C 88% Calm Calm -- 29.32 in992.9 mb 0.00 in0.0 mm 0.00 in/hr0.0 mm/hr 0.00 in0.0 mm
09:30 PM 30.9°F-0.6°C 27.8°F-2.3°C 88% Calm Calm -- 29.31 in992.6 mb 0.00 in0.0 mm 0.00 in/hr0.0 mm/hr 0.00 in0.0 mm
09:45 PM 30.9°F-0.6°C 27.8°F-2.3°C 88% Calm Calm -- 29.29 in991.9 mb 0.00 in0.0 mm 0.00 in/hr0.0 mm/hr 0.00 in0.0 mm
10:00 PM 30.9°F-0.6°C 27.8°F-2.3°C 88% Calm Calm -- 29.28 in991.5 mb 0.00 in0.0 mm 0.00 in/hr0.0 mm/hr 0.00 in0.0 mm
10:15 PM 31.1°F-0.5°C 28.2°F-2.1°C 89% Calm Calm -- 29.27 in991.2 mb 0.00 in0.0 mm 0.00 in/hr0.0 mm/hr 0.00 in0.0 mm
10:30 PM 31.1°F-0.5°C 28.2°F-2.1°C 89% Calm Calm 0.7 mph1.1 kmh 29.25 in990.5 mb 0.00 in0.0 mm 0.00 in/hr0.0 mm/hr 0.00 in0.0 mm
10:45 PM 31.1°F-0.5°C 28.2°F-2.1°C 89% Calm Calm -- 29.24 in990.2 mb 0.00 in0.0 mm 0.00 in/hr0.0 mm/hr 0.00 in0.0 mm
11:00 PM 31.1°F-0.5°C 28.5°F-1.9°C 90% Calm Calm -- 29.23 in989.8 mb 0.00 in0.0 mm 0.00 in/hr0.0 mm/hr 0.00 in0.0 mm
11:15 PM 30.9°F-0.6°C 28.3°F-2.1°C 90% Calm Calm -- 29.22 in989.5 mb 0.00 in0.0 mm 0.00 in/hr0.0 mm/hr 0.00 in0.0 mm
11:30 PM 31.1°F-0.5°C 28.5°F-1.9°C 90% Calm Calm -- 29.21 in989.2 mb 0.00 in0.0 mm 0.00 in/hr0.0 mm/hr 0.00 in0.0 mm
11:45 PM 31.3°F-0.4°C 28.7°F-1.8°C 90% Calm Calm -- 29.20 in988.8 mb 0.00 in0.0 mm 0.00 in/hr0.0 mm/hr 0.00 in0.0 mm